createdAt,value
2022-09-09T00:00:15.549Z,1.00
2022-09-09T00:00:39.044Z,1.00
2022-09-09T00:01:06.003Z,1.00
2022-09-09T00:01:33.519Z,1.00
2022-09-09T00:02:01.955Z,1.00
2022-09-09T00:02:27.289Z,1.00
2022-09-09T00:02:56.106Z,1.00
2022-09-09T00:03:23.408Z,1.00
2022-09-09T00:03:48.554Z,1.00
2022-09-09T00:04:16.293Z,1.00
2022-09-09T00:04:39.439Z,1.00
2022-09-09T00:05:10.949Z,1.00
2022-09-09T00:05:37.910Z,1.00
2022-09-09T00:06:04.909Z,1.00
2022-09-09T00:06:29.673Z,1.00
2022-09-09T00:06:56.640Z,1.00
2022-09-09T00:07:23.170Z,1.00
2022-09-09T00:07:49.129Z,1.00
2022-09-09T00:08:15.829Z,1.00
2022-09-09T00:08:43.693Z,1.00
2022-09-09T00:09:08.498Z,1.00
2022-09-09T00:09:32.485Z,1.00
2022-09-09T00:10:04.959Z,1.00
2022-09-09T00:10:29.530Z,1.00
2022-09-09T00:10:55.505Z,1.00
2022-09-09T00:11:21.969Z,1.00
2022-09-09T00:11:48.908Z,1.00
2022-09-09T00:12:13.308Z,1.00
2022-09-09T00:12:38.413Z,1.00
2022-09-09T00:13:11.877Z,1.00
2022-09-09T00:13:37.908Z,1.00
2022-09-09T00:14:01.700Z,1.00
2022-09-09T00:14:27.278Z,1.00
2022-09-09T00:14:52.164Z,1.00
2022-09-09T00:15:16.379Z,1.00
2022-09-09T00:15:41.541Z,1.00
2022-09-09T00:16:07.827Z,1.00
2022-09-09T00:16:33.164Z,1.00
2022-09-09T00:16:57.752Z,1.00
2022-09-09T00:17:28.970Z,1.00
2022-09-09T00:17:55.417Z,1.00
2022-09-09T00:18:22.843Z,1.00
2022-09-09T00:18:53.469Z,1.00
2022-09-09T00:19:19.337Z,1.00
2022-09-09T00:19:46.827Z,1.00
2022-09-09T00:20:13.616Z,1.00
2022-09-09T00:20:38.477Z,1.00
2022-09-09T00:21:07.425Z,1.00
2022-09-09T00:21:33.827Z,1.00
2022-09-09T00:22:04.063Z,1.00
2022-09-09T00:22:29.213Z,1.00
2022-09-09T00:22:56.403Z,1.00
2022-09-09T00:23:26.142Z,1.00
2022-09-09T00:23:50.478Z,1.00
2022-09-09T00:24:24.035Z,1.00
2022-09-09T00:24:48.112Z,1.00
2022-09-09T00:25:12.603Z,1.00
2022-09-09T00:25:38.961Z,1.00
2022-09-09T00:26:06.512Z,1.00
2022-09-09T00:26:33.662Z,1.00
2022-09-09T00:26:59.242Z,1.00
2022-09-09T00:27:30.408Z,1.00
2022-09-09T00:27:53.152Z,1.00
2022-09-09T00:28:19.537Z,1.00
2022-09-09T00:28:46.593Z,1.00
2022-09-09T00:29:15.868Z,1.00
2022-09-09T00:29:42.792Z,1.00
2022-09-09T00:30:17.552Z,1.00
2022-09-09T00:30:40.381Z,1.00
2022-09-09T00:31:13.975Z,1.00
2022-09-09T00:31:38.472Z,1.00
2022-09-09T00:32:04.452Z,1.00
2022-09-09T00:32:31.051Z,1.00
2022-09-09T00:32:56.244Z,1.00
2022-09-09T00:33:23.373Z,1.00
2022-09-09T00:33:46.240Z,1.00
2022-09-09T00:34:13.957Z,1.00
2022-09-09T00:34:36.737Z,1.00
2022-09-09T00:35:02.527Z,1.00
2022-09-09T00:35:26.903Z,1.00
2022-09-09T00:35:51.102Z,1.00
2022-09-09T00:36:17.148Z,1.00
2022-09-09T00:36:39.996Z,1.00
2022-09-09T00:37:05.290Z,1.00
2022-09-09T00:37:28.079Z,1.00
2022-09-09T00:37:54.429Z,1.00
2022-09-09T00:38:19.607Z,1.00
2022-09-09T00:38:43.915Z,1.00
2022-09-09T00:39:06.775Z,1.00
2022-09-09T00:39:32.533Z,1.00
2022-09-09T00:39:57.704Z,1.00
2022-09-09T00:40:27.428Z,1.00
2022-09-09T00:40:51.503Z,1.00
2022-09-09T00:41:19.441Z,1.00
2022-09-09T00:41:50.577Z,1.00
2022-09-09T00:42:16.350Z,1.00
2022-09-09T00:42:43.039Z,1.00
2022-09-09T00:43:15.203Z,1.00
2022-09-09T00:43:38.244Z,1.00
2022-09-09T00:44:03.520Z,1.00
2022-09-09T00:44:30.502Z,1.00
2022-09-09T00:44:57.045Z,1.00
2022-09-09T00:45:37.997Z,1.00
2022-09-09T00:46:33.879Z,1.00
2022-09-09T00:47:19.864Z,1.00
2022-09-09T00:47:46.254Z,1.00
2022-09-09T00:48:10.244Z,1.00
2022-09-09T00:48:37.604Z,1.00
2022-09-09T00:49:06.194Z,1.00
2022-09-09T00:49:39.099Z,1.00
2022-09-09T00:50:03.205Z,1.00
2022-09-09T00:50:43.306Z,1.00
2022-09-09T00:51:09.445Z,1.00
2022-09-09T00:51:38.359Z,1.00
2022-09-09T00:52:08.184Z,1.00
2022-09-09T00:52:36.980Z,1.00
2022-09-09T00:53:07.685Z,1.00
2022-09-09T00:53:35.105Z,1.00
2022-09-09T00:54:25.479Z,1.00
2022-09-09T00:54:52.273Z,1.00
2022-09-09T00:55:17.465Z,1.00
2022-09-09T00:55:44.430Z,1.00
2022-09-09T00:56:13.129Z,1.00
2022-09-09T00:56:38.269Z,1.00
2022-09-09T00:57:07.845Z,1.00
2022-09-09T00:57:32.335Z,99.90
2022-09-09T00:57:55.095Z,99.90
2022-09-09T00:58:17.935Z,99.90
2022-09-09T00:58:41.765Z,99.90
2022-09-09T00:59:08.336Z,99.90
2022-09-09T00:59:37.447Z,99.90
2022-09-09T01:00:18.761Z,99.90
2022-09-09T01:00:43.820Z,99.90
2022-09-09T01:01:07.833Z,99.90
2022-09-09T01:01:30.739Z,99.90
2022-09-09T01:01:53.577Z,99.90
2022-09-09T01:02:26.612Z,99.90
2022-09-09T01:03:03.548Z,99.90
2022-09-09T01:03:32.421Z,99.90
2022-09-09T01:03:55.617Z,99.90
2022-09-09T01:04:21.642Z,99.90
2022-09-09T01:04:45.601Z,99.90
2022-09-09T01:05:11.951Z,99.90
2022-09-09T01:05:39.576Z,99.90
2022-09-09T01:06:05.622Z,99.90
2022-09-09T01:06:30.717Z,99.90
2022-09-09T01:06:56.388Z,99.90
2022-09-09T01:07:20.102Z,99.90
2022-09-09T01:07:45.776Z,99.90
2022-09-09T01:08:13.273Z,99.90
2022-09-09T01:09:06.772Z,99.90
2022-09-09T01:09:31.166Z,99.90
2022-09-09T01:09:55.921Z,99.90
2022-09-09T01:10:26.757Z,99.90
2022-09-09T01:10:51.197Z,99.90
2022-09-09T01:11:17.917Z,99.90
2022-09-09T01:11:49.442Z,99.90
2022-09-09T01:12:16.163Z,99.90
2022-09-09T01:12:42.727Z,99.90
2022-09-09T01:13:09.742Z,99.90
2022-09-09T01:13:34.913Z,99.90
2022-09-09T01:14:01.603Z,99.90
2022-09-09T01:14:31.871Z,99.90
2022-09-09T01:14:57.894Z,99.90
2022-09-09T01:15:24.348Z,99.90
2022-09-09T01:15:47.689Z,99.90
2022-09-09T01:16:12.698Z,99.90
2022-09-09T01:16:35.578Z,99.90
2022-09-09T01:17:01.269Z,99.90
2022-09-09T01:17:25.717Z,99.90
2022-09-09T01:17:53.292Z,99.90
2022-09-09T01:18:18.429Z,99.90
2022-09-09T01:18:42.254Z,99.90
2022-09-09T01:19:04.922Z,99.90
2022-09-09T01:19:33.842Z,99.90
2022-09-09T01:20:05.726Z,99.90
2022-09-09T01:20:31.658Z,99.90
2022-09-09T01:21:01.328Z,99.90
2022-09-09T01:21:27.078Z,99.90
2022-09-09T01:21:54.236Z,99.90
2022-09-09T01:22:22.878Z,99.90
2022-09-09T01:22:51.382Z,99.90
2022-09-09T01:23:35.858Z,99.90
2022-09-09T01:24:17.345Z,99.90
2022-09-09T01:24:41.957Z,99.90
2022-09-09T01:25:20.103Z,99.90
2022-09-09T01:26:13.944Z,99.90
2022-09-09T01:26:36.937Z,99.90
2022-09-09T01:27:00.311Z,99.90
2022-09-09T01:27:22.991Z,99.90
2022-09-09T01:27:45.707Z,99.90
2022-09-09T01:28:10.920Z,99.90
2022-09-09T01:28:33.814Z,99.90
2022-09-09T01:28:57.586Z,99.90
2022-09-09T01:29:21.374Z,99.90
2022-09-09T01:29:44.055Z,99.90
2022-09-09T01:30:09.019Z,99.90
2022-09-09T01:30:31.763Z,99.90
2022-09-09T01:30:54.666Z,99.90
2022-09-09T01:31:19.765Z,99.90
2022-09-09T01:31:43.529Z,99.90
2022-09-09T01:32:43.818Z,99.90
2022-09-09T01:33:06.624Z,99.90
2022-09-09T01:33:29.294Z,99.90
2022-09-09T01:33:52.154Z,99.90
2022-09-09T01:34:15.294Z,99.90
2022-09-09T01:34:39.831Z,99.90
2022-09-09T01:35:02.971Z,99.90
2022-09-09T01:35:34.453Z,99.90
2022-09-09T01:35:59.534Z,99.90
2022-09-09T01:36:27.492Z,99.90
2022-09-09T01:36:56.624Z,99.90
2022-09-09T01:37:19.612Z,99.90
2022-09-09T01:37:42.919Z,99.90
2022-09-09T01:38:07.708Z,99.90
2022-09-09T01:38:30.395Z,99.90
2022-09-09T01:38:53.324Z,99.90
2022-09-09T01:39:16.119Z,99.90
2022-09-09T01:39:40.055Z,99.90
2022-09-09T01:40:03.287Z,99.90
2022-09-09T01:40:27.084Z,99.90
2022-09-09T01:40:50.415Z,99.90
2022-09-09T01:41:14.515Z,99.90
2022-09-09T01:41:37.304Z,99.90
2022-09-09T01:41:59.969Z,99.90
2022-09-09T01:42:22.880Z,99.90
2022-09-09T01:42:45.597Z,99.90
2022-09-09T01:43:08.673Z,99.90
2022-09-09T01:43:33.659Z,99.90
2022-09-09T01:43:56.468Z,99.90
2022-09-09T01:44:19.373Z,99.90
2022-09-09T01:44:42.069Z,99.90
2022-09-09T01:45:06.308Z,99.90
2022-09-09T01:45:29.091Z,99.90
2022-09-09T01:45:53.755Z,99.90
2022-09-09T01:46:16.588Z,99.90
2022-09-09T01:46:41.568Z,99.90
2022-09-09T01:47:04.733Z,99.90
2022-09-09T01:47:27.608Z,99.90
2022-09-09T01:47:50.273Z,99.90
2022-09-09T01:48:12.958Z,99.90
2022-09-09T01:48:35.698Z,99.90
2022-09-09T01:48:58.573Z,99.90
2022-09-09T01:49:21.403Z,99.90
2022-09-09T01:49:44.083Z,99.90
2022-09-09T01:50:07.803Z,99.90
2022-09-09T01:50:30.538Z,99.90
2022-09-09T01:50:55.611Z,99.90
2022-09-09T01:51:18.410Z,99.90
2022-09-09T01:51:41.353Z,99.90
2022-09-09T01:52:04.472Z,99.90
2022-09-09T01:52:27.218Z,99.90
2022-09-09T01:52:51.512Z,99.90
2022-09-09T01:53:14.245Z,99.90
2022-09-09T01:53:37.083Z,99.90
2022-09-09T01:53:59.764Z,99.90
2022-09-09T01:54:23.043Z,99.90
2022-09-09T01:54:45.779Z,99.90
2022-09-09T01:55:09.688Z,99.90
2022-09-09T01:55:33.529Z,99.90
2022-09-09T01:56:01.758Z,99.90
2022-09-09T01:56:34.593Z,99.90
2022-09-09T01:57:01.668Z,99.90
2022-09-09T01:57:26.423Z,99.90
2022-09-09T01:57:51.794Z,99.90
2022-09-09T01:58:22.723Z,99.90
2022-09-09T01:58:53.597Z,99.90
2022-09-09T01:59:26.232Z,99.90
2022-09-09T02:00:01.799Z,99.90
2022-09-09T02:00:24.548Z,99.90
2022-09-09T02:00:51.568Z,99.90
2022-09-09T02:01:18.936Z,99.90
2022-09-09T02:01:48.352Z,99.90
2022-09-09T02:02:12.869Z,99.90
2022-09-09T02:02:37.887Z,99.90
2022-09-09T02:03:05.118Z,99.90
2022-09-09T02:03:29.176Z,99.90
2022-09-09T02:03:53.948Z,99.90
2022-09-09T02:04:24.393Z,99.90
2022-09-09T02:04:48.648Z,99.90
2022-09-09T02:05:17.887Z,99.90
2022-09-09T02:05:41.474Z,99.90
2022-09-09T02:06:12.489Z,99.90
2022-09-09T02:06:36.480Z,99.90
2022-09-09T02:06:59.373Z,99.90
2022-09-09T02:07:34.723Z,99.90
2022-09-09T02:08:01.069Z,99.90
2022-09-09T02:08:27.540Z,99.90
2022-09-09T02:08:51.247Z,99.90
2022-09-09T02:09:14.085Z,99.90
2022-09-09T02:09:36.820Z,99.90
2022-09-09T02:10:03.521Z,99.90
2022-09-09T02:10:29.470Z,99.90
2022-09-09T02:10:56.664Z,99.90
2022-09-09T02:11:20.021Z,99.90
2022-09-09T02:11:45.326Z,99.90
2022-09-09T02:12:11.055Z,99.90
2022-09-09T02:12:33.760Z,99.90
2022-09-09T02:13:00.260Z,99.90
2022-09-09T02:13:23.491Z,99.90
2022-09-09T02:13:47.520Z,99.90
2022-09-09T02:14:11.682Z,99.90
2022-09-09T02:14:37.211Z,99.90
2022-09-09T02:15:02.300Z,99.90
2022-09-09T02:15:28.325Z,99.90
2022-09-09T02:15:53.784Z,99.90
2022-09-09T02:16:20.412Z,99.90
2022-09-09T02:16:45.522Z,99.90
2022-09-09T02:17:09.587Z,99.90
2022-09-09T02:17:34.266Z,99.90
2022-09-09T02:17:56.971Z,99.90
2022-09-09T02:18:24.510Z,99.90
2022-09-09T02:18:49.964Z,1.00
2022-09-09T02:19:14.560Z,1.00
2022-09-09T02:19:38.910Z,99.90
2022-09-09T02:20:04.256Z,99.90
2022-09-09T02:20:32.342Z,99.90
2022-09-09T02:20:58.750Z,99.90
2022-09-09T02:21:21.446Z,99.90
2022-09-09T02:21:45.305Z,99.90
2022-09-09T02:22:08.169Z,99.90
2022-09-09T02:22:30.939Z,99.90
2022-09-09T02:22:53.756Z,99.90
2022-09-09T02:23:18.897Z,99.90
2022-09-09T02:23:41.920Z,99.90
2022-09-09T02:24:06.895Z,99.90
2022-09-09T02:24:30.727Z,99.90
2022-09-09T02:24:54.739Z,99.90
2022-09-09T02:25:19.094Z,99.90
2022-09-09T02:25:41.790Z,99.90
2022-09-09T02:26:04.730Z,99.90
2022-09-09T02:26:27.669Z,99.90
2022-09-09T02:26:53.603Z,99.90
2022-09-09T02:27:17.668Z,99.90
2022-09-09T02:27:41.683Z,99.90
2022-09-09T02:28:04.730Z,99.90
2022-09-09T02:28:29.133Z,99.90
2022-09-09T02:28:52.533Z,99.90
2022-09-09T02:29:19.019Z,99.90
2022-09-09T02:29:43.048Z,99.90
2022-09-09T02:30:06.729Z,99.90
2022-09-09T02:30:29.628Z,99.90
2022-09-09T02:30:56.390Z,99.90
2022-09-09T02:31:20.051Z,99.90
2022-09-09T02:31:42.973Z,99.90
2022-09-09T02:32:07.419Z,99.90
2022-09-09T02:32:31.861Z,99.90
2022-09-09T02:32:58.093Z,99.90
2022-09-09T02:33:20.798Z,99.90
2022-09-09T02:33:49.866Z,99.90
2022-09-09T02:34:12.721Z,99.90
2022-09-09T02:34:38.860Z,99.90
2022-09-09T02:35:03.995Z,99.90
2022-09-09T02:35:27.541Z,99.90
2022-09-09T02:35:50.191Z,99.90
2022-09-09T02:36:12.985Z,99.90
2022-09-09T02:36:36.081Z,99.90
2022-09-09T02:36:58.956Z,99.90
2022-09-09T02:37:23.061Z,99.90
2022-09-09T02:37:49.609Z,99.90
2022-09-09T02:38:13.521Z,99.90
2022-09-09T02:38:38.420Z,99.90
2022-09-09T02:39:01.185Z,99.90
2022-09-09T02:39:24.066Z,98.40
2022-09-09T02:39:47.917Z,81.90
2022-09-09T02:40:12.637Z,4.50
2022-09-09T02:40:35.441Z,49.80
2022-09-09T02:40:59.406Z,99.90
2022-09-09T02:41:24.494Z,99.90
2022-09-09T02:41:48.407Z,92.40
2022-09-09T02:42:12.695Z,82.80
2022-09-09T02:42:40.830Z,59.10
2022-09-09T02:43:04.180Z,95.60
2022-09-09T02:43:26.978Z,99.90
2022-09-09T02:43:49.773Z,99.90
2022-09-09T02:44:12.813Z,99.90
2022-09-09T02:44:35.599Z,99.90
2022-09-09T02:44:58.252Z,99.90
2022-09-09T02:45:22.095Z,99.90
2022-09-09T02:45:48.133Z,99.90
2022-09-09T02:46:19.286Z,99.90
2022-09-09T02:46:53.287Z,99.90
2022-09-09T02:47:22.723Z,97.00
2022-09-09T02:47:48.664Z,93.40
2022-09-09T02:48:15.408Z,93.20
2022-09-09T02:48:41.767Z,73.70
2022-09-09T02:49:07.509Z,55.70
2022-09-09T02:49:34.404Z,54.20
2022-09-09T02:50:03.334Z,99.90
2022-09-09T02:50:27.643Z,99.90
2022-09-09T02:50:54.889Z,99.90
2022-09-09T02:51:21.659Z,99.90
2022-09-09T02:51:50.005Z,99.90
2022-09-09T02:52:17.276Z,99.90
2022-09-09T02:52:46.399Z,93.30
2022-09-09T02:53:11.698Z,99.90
2022-09-09T02:53:37.571Z,99.90
2022-09-09T02:54:03.628Z,99.90
2022-09-09T02:54:29.925Z,99.90
2022-09-09T02:54:52.670Z,99.90
2022-09-09T02:55:18.716Z,99.90
2022-09-09T02:55:43.523Z,99.90
2022-09-09T02:56:07.070Z,99.90
2022-09-09T02:56:31.430Z,99.90
2022-09-09T02:56:57.603Z,99.90
2022-09-09T02:57:23.710Z,99.90
2022-09-09T02:57:48.344Z,99.90
2022-09-09T02:58:12.986Z,99.90
2022-09-09T02:58:35.811Z,99.90
2022-09-09T02:58:58.551Z,99.90
2022-09-09T02:59:21.504Z,99.90
2022-09-09T02:59:44.659Z,99.90
2022-09-09T03:00:12.689Z,99.90
2022-09-09T03:00:37.285Z,2.10
2022-09-09T03:01:02.380Z,71.90
2022-09-09T03:01:25.448Z,99.90
2022-09-09T03:01:48.269Z,99.90
2022-09-09T03:02:12.499Z,99.90
2022-09-09T03:02:35.662Z,99.90
2022-09-09T03:02:58.604Z,99.90
2022-09-09T03:03:22.403Z,99.90
2022-09-09T03:03:45.444Z,99.90
2022-09-09T03:04:10.375Z,99.90
2022-09-09T03:04:35.994Z,99.90
2022-09-09T03:04:59.402Z,99.90
2022-09-09T03:05:22.208Z,99.90
2022-09-09T03:05:44.885Z,99.90
2022-09-09T03:06:07.692Z,99.90
2022-09-09T03:06:30.404Z,99.90
2022-09-09T03:06:53.090Z,99.90
2022-09-09T03:07:16.840Z,99.90
2022-09-09T03:07:40.971Z,99.90
2022-09-09T03:08:03.851Z,99.90
2022-09-09T03:08:28.765Z,99.90
2022-09-09T03:08:53.569Z,99.90
2022-09-09T03:09:16.361Z,99.90
2022-09-09T03:09:39.059Z,99.90
2022-09-09T03:10:01.800Z,1.00
2022-09-09T03:10:24.485Z,1.00
2022-09-09T03:10:47.205Z,1.00
2022-09-09T03:11:10.580Z,1.00
2022-09-09T03:11:36.815Z,1.00
2022-09-09T03:11:59.555Z,1.00
2022-09-09T03:12:23.824Z,1.00
2022-09-09T03:12:46.610Z,1.00
2022-09-09T03:13:09.325Z,1.00
2022-09-09T03:13:32.053Z,1.00
2022-09-09T03:13:57.212Z,1.00
2022-09-09T03:14:22.346Z,1.00
2022-09-09T03:14:47.011Z,1.00
2022-09-09T03:15:11.045Z,1.00
2022-09-09T03:15:33.855Z,1.00
2022-09-09T03:15:56.609Z,1.00
2022-09-09T03:16:19.467Z,1.00
2022-09-09T03:16:43.568Z,1.00
2022-09-09T03:17:06.749Z,1.00
2022-09-09T03:17:29.525Z,1.00
2022-09-09T03:17:52.399Z,1.00
2022-09-09T03:18:16.175Z,1.00
2022-09-09T03:18:39.211Z,1.00
2022-09-09T03:19:01.971Z,1.00
2022-09-09T03:19:24.692Z,1.00
2022-09-09T03:19:50.591Z,1.00
2022-09-09T03:20:13.621Z,1.00
2022-09-09T03:20:36.320Z,1.00
2022-09-09T03:21:00.712Z,1.00
2022-09-09T03:21:23.489Z,1.00
2022-09-09T03:21:49.331Z,1.00
2022-09-09T03:22:12.625Z,1.00
2022-09-09T03:22:35.406Z,1.00
2022-09-09T03:23:00.641Z,1.00
2022-09-09T03:23:24.031Z,1.00
2022-09-09T03:23:47.426Z,1.00
2022-09-09T03:24:10.739Z,1.00
2022-09-09T03:24:33.450Z,1.00
2022-09-09T03:24:58.496Z,1.00
2022-09-09T03:25:21.322Z,1.00
2022-09-09T03:25:49.339Z,1.00
2022-09-09T03:26:13.430Z,1.00
2022-09-09T03:26:36.136Z,1.00
2022-09-09T03:26:58.921Z,1.00
2022-09-09T03:27:23.081Z,1.00
2022-09-09T03:27:45.816Z,1.00
2022-09-09T03:28:08.536Z,1.00
2022-09-09T03:28:32.709Z,1.00
2022-09-09T03:28:55.583Z,1.00
2022-09-09T03:29:19.043Z,1.00
2022-09-09T03:29:41.893Z,1.00
2022-09-09T03:30:07.532Z,1.00
2022-09-09T03:30:31.715Z,1.00
2022-09-09T03:30:54.870Z,1.00
2022-09-09T03:31:17.715Z,1.00
2022-09-09T03:31:40.577Z,1.00
2022-09-09T03:32:03.767Z,1.00
2022-09-09T03:32:27.385Z,1.00
2022-09-09T03:32:50.185Z,1.00
2022-09-09T03:33:16.098Z,1.00
2022-09-09T03:33:38.762Z,1.00
2022-09-09T03:34:01.516Z,1.00
2022-09-09T03:34:24.294Z,1.00
2022-09-09T03:34:50.774Z,1.00
2022-09-09T03:35:13.569Z,1.00
2022-09-09T03:35:36.419Z,1.00
2022-09-09T03:35:59.221Z,1.00
2022-09-09T03:36:24.089Z,1.00
2022-09-09T03:36:47.539Z,1.00
2022-09-09T03:37:11.250Z,1.00
2022-09-09T03:37:33.949Z,1.00
2022-09-09T03:37:57.043Z,1.00
2022-09-09T03:38:19.719Z,1.00
2022-09-09T03:38:42.502Z,1.00
2022-09-09T03:39:05.210Z,1.00
2022-09-09T03:39:27.879Z,1.00
2022-09-09T03:39:50.669Z,1.00
2022-09-09T03:40:13.453Z,1.00
2022-09-09T03:40:37.326Z,1.00
2022-09-09T03:41:01.321Z,1.00
2022-09-09T03:41:25.049Z,1.00
2022-09-09T03:41:49.610Z,1.00
2022-09-09T03:42:15.219Z,1.00
2022-09-09T03:42:39.514Z,1.00
2022-09-09T03:43:02.244Z,1.00
2022-09-09T03:43:25.199Z,1.00
2022-09-09T03:43:50.424Z,1.00
2022-09-09T03:44:13.187Z,1.00
2022-09-09T03:44:38.079Z,1.00
2022-09-09T03:45:00.880Z,1.00
2022-09-09T03:45:23.754Z,1.00
2022-09-09T03:45:48.791Z,1.00
2022-09-09T03:46:11.753Z,1.00
2022-09-09T03:46:35.051Z,1.00
2022-09-09T03:46:57.786Z,1.00
2022-09-09T03:47:20.842Z,1.00
2022-09-09T03:47:43.530Z,1.00
2022-09-09T03:48:09.455Z,1.00
2022-09-09T03:48:32.330Z,1.00
2022-09-09T03:48:55.245Z,1.00
2022-09-09T03:49:17.981Z,1.00
2022-09-09T03:49:40.676Z,1.00
2022-09-09T03:50:05.309Z,1.00
2022-09-09T03:50:28.645Z,1.00
2022-09-09T03:50:52.154Z,1.00
2022-09-09T03:51:17.284Z,1.00
2022-09-09T03:51:40.355Z,1.00
2022-09-09T03:52:03.283Z,1.00
2022-09-09T03:52:27.414Z,1.00
2022-09-09T03:52:50.119Z,1.00
2022-09-09T03:53:12.884Z,1.00
2022-09-09T03:53:35.583Z,1.00
2022-09-09T03:54:00.549Z,1.00
2022-09-09T03:54:23.839Z,1.00
2022-09-09T03:54:46.615Z,1.00
2022-09-09T03:55:09.604Z,1.00
2022-09-09T03:55:34.884Z,1.00
2022-09-09T03:56:00.932Z,1.00
2022-09-09T03:56:23.905Z,1.00
2022-09-09T03:56:46.731Z,1.00
2022-09-09T03:57:09.870Z,1.00
2022-09-09T03:57:33.305Z,1.00
2022-09-09T03:57:57.545Z,1.00
2022-09-09T03:58:20.400Z,1.00
2022-09-09T03:58:43.081Z,1.00
2022-09-09T03:59:05.819Z,1.00
2022-09-09T03:59:28.537Z,1.00
2022-09-09T03:59:51.223Z,1.00
2022-09-09T04:00:14.879Z,1.00
2022-09-09T04:00:37.705Z,1.00
2022-09-09T04:01:01.581Z,1.00
2022-09-09T04:01:24.409Z,1.00
2022-09-09T04:01:48.252Z,1.00
2022-09-09T04:02:11.072Z,1.00
2022-09-09T04:02:33.907Z,1.00
2022-09-09T04:02:59.045Z,1.00
2022-09-09T04:03:24.685Z,1.00
2022-09-09T04:03:51.910Z,1.00
2022-09-09T04:04:14.599Z,1.00
2022-09-09T04:04:37.304Z,1.80
2022-09-09T04:05:00.801Z,1.90
2022-09-09T04:05:23.451Z,3.90
2022-09-09T04:05:46.124Z,5.20
2022-09-09T04:06:12.005Z,4.90
2022-09-09T04:06:35.364Z,5.10
2022-09-09T04:06:58.124Z,6.30
2022-09-09T04:07:23.046Z,6.90
2022-09-09T04:07:45.864Z,8.40
2022-09-09T04:08:09.449Z,9.00
2022-09-09T04:08:35.002Z,9.10
2022-09-09T04:08:58.145Z,9.40
2022-09-09T04:09:20.880Z,10.40
2022-09-09T04:09:43.619Z,10.60
2022-09-09T04:10:09.511Z,11.10
2022-09-09T04:10:32.829Z,10.80
2022-09-09T04:10:59.119Z,11.60
2022-09-09T04:11:21.909Z,11.80
2022-09-09T04:11:44.560Z,11.50
2022-09-09T04:12:07.850Z,11.20
2022-09-09T04:12:30.634Z,10.90
2022-09-09T04:12:53.919Z,11.70
2022-09-09T04:13:18.894Z,11.80
2022-09-09T04:13:43.531Z,11.00
2022-09-09T04:14:07.247Z,10.80
2022-09-09T04:14:30.236Z,10.30
2022-09-09T04:14:52.955Z,8.80
2022-09-09T04:15:15.856Z,8.80
2022-09-09T04:15:38.546Z,9.00
2022-09-09T04:16:01.795Z,9.10
2022-09-09T04:16:27.442Z,8.20
2022-09-09T04:16:50.241Z,8.40
2022-09-09T04:17:12.961Z,6.60
2022-09-09T04:17:37.464Z,6.80
2022-09-09T04:18:00.181Z,6.80
2022-09-09T04:18:23.036Z,7.50
2022-09-09T04:18:45.704Z,7.50
2022-09-09T04:19:10.020Z,7.80
2022-09-09T04:19:32.676Z,8.60
2022-09-09T04:19:55.377Z,8.20
2022-09-09T04:20:18.190Z,8.20
2022-09-09T04:20:41.493Z,7.10
2022-09-09T04:21:05.781Z,4.90
2022-09-09T04:21:28.488Z,1.00
2022-09-09T04:21:53.696Z,1.00
2022-09-09T04:22:17.473Z,1.00
2022-09-09T04:22:40.246Z,1.00
2022-09-09T04:23:02.931Z,1.00
2022-09-09T04:23:28.316Z,1.00
2022-09-09T04:23:50.922Z,1.00
2022-09-09T04:24:16.025Z,1.00
2022-09-09T04:24:38.731Z,1.00
2022-09-09T04:25:01.445Z,1.00
2022-09-09T04:25:24.160Z,1.00
2022-09-09T04:25:48.000Z,1.00
2022-09-09T04:26:11.010Z,1.00
2022-09-09T04:26:34.083Z,1.00
2022-09-09T04:26:56.820Z,1.00
2022-09-09T04:27:22.063Z,1.00
2022-09-09T04:27:45.456Z,1.00
2022-09-09T04:28:08.236Z,1.00
2022-09-09T04:28:33.341Z,1.00
2022-09-09T04:28:57.132Z,1.00
2022-09-09T04:29:19.869Z,1.00
2022-09-09T04:29:42.664Z,1.00
2022-09-09T04:30:06.253Z,1.00
2022-09-09T04:30:28.970Z,1.00
2022-09-09T04:30:53.481Z,1.00
2022-09-09T04:31:17.817Z,1.00
2022-09-09T04:31:43.295Z,1.00
2022-09-09T04:32:06.394Z,1.00
2022-09-09T04:32:29.247Z,1.00
2022-09-09T04:32:51.909Z,1.00
2022-09-09T04:33:14.651Z,99.90
2022-09-09T04:33:40.289Z,99.90
2022-09-09T04:34:06.244Z,99.90
2022-09-09T04:34:30.898Z,99.90
2022-09-09T04:34:53.604Z,99.90
2022-09-09T04:35:16.839Z,99.90
2022-09-09T04:35:39.648Z,99.90
2022-09-09T04:36:02.750Z,99.90
2022-09-09T04:36:25.547Z,99.90
2022-09-09T04:36:48.503Z,99.90
2022-09-09T04:37:11.303Z,99.90
2022-09-09T04:37:34.178Z,99.90
2022-09-09T04:37:56.868Z,99.90
2022-09-09T04:38:19.749Z,99.90
2022-09-09T04:38:42.385Z,99.90
2022-09-09T04:39:05.252Z,99.90
2022-09-09T04:39:27.911Z,90.00
2022-09-09T04:39:50.676Z,68.40
2022-09-09T04:40:13.425Z,51.60
2022-09-09T04:40:36.675Z,1.00
2022-09-09T04:40:59.709Z,1.00
2022-09-09T04:41:22.557Z,1.00
2022-09-09T04:41:45.332Z,1.00
2022-09-09T04:42:10.351Z,1.00
2022-09-09T04:42:37.011Z,1.00
2022-09-09T04:42:59.706Z,1.00
2022-09-09T04:43:23.387Z,1.00
2022-09-09T04:43:47.637Z,1.00
2022-09-09T04:44:11.213Z,1.00
2022-09-09T04:44:35.003Z,1.00
2022-09-09T04:44:58.109Z,1.00
2022-09-09T04:45:20.890Z,7.20
2022-09-09T04:45:43.754Z,1.00
2022-09-09T04:46:07.004Z,1.00
2022-09-09T04:46:29.758Z,1.00
2022-09-09T04:46:52.417Z,1.00
2022-09-09T04:47:15.707Z,17.50
2022-09-09T04:47:38.407Z,50.80
2022-09-09T04:48:03.762Z,65.80
2022-09-09T04:48:26.572Z,99.90
2022-09-09T04:48:50.722Z,99.90
2022-09-09T04:49:15.368Z,91.10
2022-09-09T04:49:38.236Z,17.30
2022-09-09T04:50:01.766Z,1.00
2022-09-09T04:50:24.467Z,1.00
2022-09-09T04:50:55.858Z,1.00
2022-09-09T04:51:18.621Z,1.00
2022-09-09T04:51:41.337Z,1.00
2022-09-09T04:52:06.516Z,1.00
2022-09-09T04:52:29.277Z,1.00
2022-09-09T04:52:52.193Z,1.00
2022-09-09T04:53:14.891Z,1.00
2022-09-09T04:53:39.099Z,1.00
2022-09-09T04:54:01.903Z,1.00
2022-09-09T04:54:24.561Z,1.00
2022-09-09T04:54:49.728Z,1.00
2022-09-09T04:55:14.088Z,1.00
2022-09-09T04:55:36.789Z,1.00
2022-09-09T04:56:06.884Z,1.00
2022-09-09T04:56:29.598Z,1.00
2022-09-09T04:56:52.318Z,1.00
2022-09-09T04:57:18.607Z,1.00
2022-09-09T04:57:41.743Z,1.00
2022-09-09T04:58:05.633Z,1.00
2022-09-09T04:58:28.328Z,24.70
2022-09-09T04:58:52.451Z,1.00
2022-09-09T04:59:15.424Z,1.00
2022-09-09T04:59:38.739Z,1.00
2022-09-09T05:00:01.383Z,1.00
2022-09-09T05:00:24.153Z,1.00
2022-09-09T05:00:47.560Z,1.00
2022-09-09T05:01:11.327Z,1.00
2022-09-09T05:01:34.953Z,1.00
2022-09-09T05:01:57.836Z,1.00
2022-09-09T05:02:20.670Z,1.00
2022-09-09T05:02:43.791Z,1.00
2022-09-09T05:03:06.723Z,1.00
2022-09-09T05:03:30.101Z,1.00
2022-09-09T05:03:54.411Z,99.00
2022-09-09T05:04:17.896Z,1.00
2022-09-09T05:04:40.616Z,1.00
2022-09-09T05:05:03.597Z,1.00
2022-09-09T05:05:26.905Z,1.00
2022-09-09T05:05:50.224Z,1.00
2022-09-09T05:06:14.181Z,1.00
2022-09-09T05:06:37.603Z,1.00
2022-09-09T05:07:02.792Z,1.00
2022-09-09T05:07:27.415Z,3.10
2022-09-09T05:07:50.563Z,12.70
2022-09-09T05:08:13.409Z,44.80
2022-09-09T05:08:37.358Z,30.30
2022-09-09T05:09:01.640Z,41.50
2022-09-09T05:09:25.340Z,1.00
2022-09-09T05:09:50.576Z,1.00
2022-09-09T05:10:15.205Z,1.00
2022-09-09T05:10:39.045Z,1.00
2022-09-09T05:11:01.768Z,1.00
2022-09-09T05:11:25.540Z,1.00
2022-09-09T05:11:48.307Z,4.70
2022-09-09T05:12:13.415Z,1.00
2022-09-09T05:12:36.176Z,1.00
2022-09-09T05:12:58.968Z,1.00
2022-09-09T05:13:22.400Z,1.00
2022-09-09T05:13:45.345Z,1.00
2022-09-09T05:14:12.645Z,1.00
2022-09-09T05:14:37.352Z,1.00
2022-09-09T05:14:59.995Z,1.00
2022-09-09T05:15:22.705Z,1.00
2022-09-09T05:15:54.157Z,1.00
2022-09-09T05:16:17.114Z,1.00
2022-09-09T05:16:40.625Z,1.00
2022-09-09T05:17:06.026Z,1.00
2022-09-09T05:17:29.115Z,39.10
2022-09-09T05:17:53.756Z,35.70
2022-09-09T05:18:17.186Z,99.90
2022-09-09T05:18:39.975Z,99.90
2022-09-09T05:19:04.387Z,99.90
2022-09-09T05:19:29.162Z,99.90
2022-09-09T05:19:51.836Z,99.90
2022-09-09T05:20:17.436Z,99.90
2022-09-09T05:20:40.440Z,99.90
2022-09-09T05:21:03.245Z,99.90
2022-09-09T05:21:29.485Z,99.90
2022-09-09T05:21:52.407Z,15.00
2022-09-09T05:22:19.187Z,99.90
2022-09-09T05:22:41.983Z,99.90
2022-09-09T05:23:04.657Z,99.90
2022-09-09T05:23:27.603Z,99.90
2022-09-09T05:23:52.778Z,99.90
2022-09-09T05:24:15.545Z,99.90
2022-09-09T05:24:38.908Z,99.90
2022-09-09T05:25:02.653Z,99.90
2022-09-09T05:25:28.180Z,99.90
2022-09-09T05:25:57.905Z,99.90
2022-09-09T05:26:21.778Z,99.90
2022-09-09T05:26:45.303Z,99.90
2022-09-09T05:27:08.058Z,99.90